sensor_id;sensor_type;location;lat;lon;timestamp;pressure;altitude;pressure_sealevel;temperature;humidity
28630;BME280;15817;42.130;24.762;2023-04-15T00:01:41;99098.41;;;14.38;84.65
28630;BME280;15817;42.130;24.762;2023-04-15T00:04:07;99101.94;;;14.40;84.53
28630;BME280;15817;42.130;24.762;2023-04-15T00:06:33;99085.09;;;14.36;84.56
28630;BME280;15817;42.130;24.762;2023-04-15T00:08:59;99099.22;;;14.41;84.56
28630;BME280;15817;42.130;24.762;2023-04-15T00:11:25;99102.84;;;14.39;84.56
28630;BME280;15817;42.130;24.762;2023-04-15T00:13:50;99089.59;;;14.34;84.71
28630;BME280;15817;42.130;24.762;2023-04-15T00:16:17;99108.38;;;14.33;84.60
28630;BME280;15817;42.130;24.762;2023-04-15T00:18:42;99113.06;;;14.26;84.94
28630;BME280;15817;42.130;24.762;2023-04-15T00:21:08;99120.41;;;14.20;85.33
28630;BME280;15817;42.130;24.762;2023-04-15T00:23:34;99113.34;;;14.19;85.27
28630;BME280;15817;42.130;24.762;2023-04-15T00:26:01;99108.16;;;14.12;85.47
28630;BME280;15817;42.130;24.762;2023-04-15T00:28:27;99122.41;;;14.13;85.67
28630;BME280;15817;42.130;24.762;2023-04-15T00:30:55;99116.84;;;14.19;85.73
28630;BME280;15817;42.130;24.762;2023-04-15T00:33:21;99115.00;;;14.21;85.55
28630;BME280;15817;42.130;24.762;2023-04-15T00:35:46;99102.47;;;14.23;85.63
28630;BME280;15817;42.130;24.762;2023-04-15T00:38:12;99097.16;;;14.22;85.40
28630;BME280;15817;42.130;24.762;2023-04-15T00:40:40;99097.13;;;14.23;85.33
28630;BME280;15817;42.130;24.762;2023-04-15T00:43:06;99106.22;;;14.18;85.83
28630;BME280;15817;42.130;24.762;2023-04-15T00:45:31;99106.22;;;14.18;85.60
28630;BME280;15817;42.130;24.762;2023-04-15T00:47:58;99102.78;;;14.14;85.80
28630;BME280;15817;42.130;24.762;2023-04-15T00:50:24;99102.94;;;14.08;85.80
28630;BME280;15817;42.130;24.762;2023-04-15T00:52:49;99110.00;;;14.10;85.90
28630;BME280;15817;42.130;24.762;2023-04-15T00:55:15;99102.88;;;14.11;86.44
28630;BME280;15817;42.130;24.762;2023-04-15T00:57:41;99101.94;;;14.12;86.33
28630;BME280;15817;42.130;24.762;2023-04-15T01:00:07;99097.56;;;14.09;86.46
28630;BME280;15817;42.130;24.762;2023-04-15T01:02:34;99088.66;;;14.09;86.45
28630;BME280;15817;42.130;24.762;2023-04-15T01:05:01;99086.06;;;14.07;86.67
28630;BME280;15817;42.130;24.762;2023-04-15T01:07:27;99091.50;;;14.04;86.63
28630;BME280;15817;42.130;24.762;2023-04-15T01:09:52;99075.84;;;13.92;86.67
28630;BME280;15817;42.130;24.762;2023-04-15T01:12:19;99088.47;;;13.87;86.32
28630;BME280;15817;42.130;24.762;2023-04-15T01:14:45;99098.25;;;13.88;85.60
28630;BME280;15817;42.130;24.762;2023-04-15T01:17:11;99095.97;;;13.76;85.02
28630;BME280;15817;42.130;24.762;2023-04-15T01:19:39;99111.97;;;13.77;84.95
28630;BME280;15817;42.130;24.762;2023-04-15T01:22:05;99112.69;;;13.83;84.66
28630;BME280;15817;42.130;24.762;2023-04-15T01:24:31;99103.69;;;13.85;84.35
28630;BME280;15817;42.130;24.762;2023-04-15T01:26:58;99109.28;;;13.77;84.02
28630;BME280;15817;42.130;24.762;2023-04-15T01:29:24;99125.22;;;13.81;83.81
28630;BME280;15817;42.130;24.762;2023-04-15T01:31:51;99116.63;;;13.71;83.18
28630;BME280;15817;42.130;24.762;2023-04-15T01:34:17;99114.72;;;13.74;82.53
28630;BME280;15817;42.130;24.762;2023-04-15T01:36:43;99108.75;;;13.66;82.14
28630;BME280;15817;42.130;24.762;2023-04-15T01:39:09;99107.78;;;13.69;81.83
28630;BME280;15817;42.130;24.762;2023-04-15T01:41:35;99113.25;;;13.64;81.10
28630;BME280;15817;42.130;24.762;2023-04-15T01:44:01;99114.31;;;13.59;80.13
28630;BME280;15817;42.130;24.762;2023-04-15T01:46:26;99116.41;;;13.49;80.07
28630;BME280;15817;42.130;24.762;2023-04-15T01:48:52;99136.75;;;13.53;80.07
28630;BME280;15817;42.130;24.762;2023-04-15T01:51:18;99128.97;;;13.46;80.34
28630;BME280;15817;42.130;24.762;2023-04-15T01:53:44;99133.56;;;13.40;80.68
28630;BME280;15817;42.130;24.762;2023-04-15T01:56:10;99139.88;;;13.38;80.54
28630;BME280;15817;42.130;24.762;2023-04-15T01:58:36;99144.47;;;13.33;80.53
28630;BME280;15817;42.130;24.762;2023-04-15T02:01:02;99155.19;;;13.31;79.69
28630;BME280;15817;42.130;24.762;2023-04-15T02:03:30;99162.41;;;13.28;79.88
28630;BME280;15817;42.130;24.762;2023-04-15T02:05:56;99166.06;;;13.25;79.76
28630;BME280;15817;42.130;24.762;2023-04-15T02:08:22;99152.88;;;13.19;79.57
28630;BME280;15817;42.130;24.762;2023-04-15T02:10:48;99171.44;;;13.24;79.82
28630;BME280;15817;42.130;24.762;2023-04-15T02:13:13;99152.28;;;13.06;79.93
28630;BME280;15817;42.130;24.762;2023-04-15T02:15:39;99164.63;;;13.12;79.60
28630;BME280;15817;42.130;24.762;2023-04-15T02:18:05;99164.50;;;13.17;79.50
28630;BME280;15817;42.130;24.762;2023-04-15T02:20:31;99144.25;;;13.08;79.22
28630;BME280;15817;42.130;24.762;2023-04-15T02:22:57;99140.63;;;13.11;78.62
28630;BME280;15817;42.130;24.762;2023-04-15T02:25:23;99159.22;;;13.15;77.88
28630;BME280;15817;42.130;24.762;2023-04-15T02:27:49;99161.97;;;13.11;77.62
28630;BME280;15817;42.130;24.762;2023-04-15T02:30:15;99155.69;;;13.13;77.16
28630;BME280;15817;42.130;24.762;2023-04-15T02:32:41;99154.84;;;13.11;76.95
28630;BME280;15817;42.130;24.762;2023-04-15T02:35:09;99152.13;;;13.14;76.69
28630;BME280;15817;42.130;24.762;2023-04-15T02:37:36;99136.31;;;13.05;76.64
28630;BME280;15817;42.130;24.762;2023-04-15T02:40:09;99146.00;;;13.09;76.73
28630;BME280;15817;42.130;24.762;2023-04-15T02:42:39;99146.88;;;13.10;76.53
28630;BME280;15817;42.130;24.762;2023-04-15T02:45:08;99156.72;;;13.07;76.57
28630;BME280;15817;42.130;24.762;2023-04-15T02:47:35;99148.72;;;13.07;76.46
28630;BME280;15817;42.130;24.762;2023-04-15T02:50:03;99148.06;;;12.99;76.26
28630;BME280;15817;42.130;24.762;2023-04-15T02:52:30;99156.03;;;13.01;76.47
28630;BME280;15817;42.130;24.762;2023-04-15T02:54:56;99160.34;;;13.05;75.95
28630;BME280;15817;42.130;24.762;2023-04-15T02:57:26;99161.13;;;13.09;75.28
28630;BME280;15817;42.130;24.762;2023-04-15T02:59:54;99170.03;;;13.09;75.17
28630;BME280;15817;42.130;24.762;2023-04-15T03:02:20;99177.28;;;13.04;75.10
28630;BME280;15817;42.130;24.762;2023-04-15T03:04:46;99168.50;;;13.00;74.89
28630;BME280;15817;42.130;24.762;2023-04-15T03:07:11;99158.66;;;13.02;75.20
28630;BME280;15817;42.130;24.762;2023-04-15T03:09:37;99157.75;;;13.03;75.52
28630;BME280;15817;42.130;24.762;2023-04-15T03:12:05;99150.78;;;12.96;75.96
28630;BME280;15817;42.130;24.762;2023-04-15T03:14:31;99151.75;;;12.94;75.48
28630;BME280;15817;42.130;24.762;2023-04-15T03:17:00;99170.22;;;13.03;75.54
28630;BME280;15817;42.130;24.762;2023-04-15T03:19:28;99177.44;;;12.98;75.58
28630;BME280;15817;42.130;24.762;2023-04-15T03:21:56;99166.13;;;12.90;75.56
28630;BME280;15817;42.130;24.762;2023-04-15T03:24:22;99177.69;;;12.89;75.74
28630;BME280;15817;42.130;24.762;2023-04-15T03:26:52;99177.75;;;12.87;76.05
28630;BME280;15817;42.130;24.762;2023-04-15T03:29:22;99175.81;;;12.92;76.13
28630;BME280;15817;42.130;24.762;2023-04-15T03:31:48;99183.06;;;12.87;76.17
28630;BME280;15817;42.130;24.762;2023-04-15T03:34:15;99198.09;;;12.91;76.11
28630;BME280;15817;42.130;24.762;2023-04-15T03:36:41;99195.47;;;12.90;75.71
28630;BME280;15817;42.130;24.762;2023-04-15T03:39:06;99204.56;;;12.81;75.79
28630;BME280;15817;42.130;24.762;2023-04-15T03:41:32;99210.28;;;12.67;76.80
28630;BME280;15817;42.130;24.762;2023-04-15T03:43:58;99231.81;;;12.58;77.31
28630;BME280;15817;42.130;24.762;2023-04-15T03:46:24;99237.09;;;12.61;77.98
28630;BME280;15817;42.130;24.762;2023-04-15T03:48:50;99227.53;;;12.53;77.54
28630;BME280;15817;42.130;24.762;2023-04-15T03:51:15;99233.44;;;12.65;76.92
28630;BME280;15817;42.130;24.762;2023-04-15T03:53:41;99232.50;;;12.68;76.37
28630;BME280;15817;42.130;24.762;2023-04-15T03:56:07;99231.66;;;12.66;76.61
28630;BME280;15817;42.130;24.762;2023-04-15T03:58:32;99234.38;;;12.63;76.30
28630;BME280;15817;42.130;24.762;2023-04-15T04:00:58;99244.97;;;12.67;76.73
28630;BME280;15817;42.130;24.762;2023-04-15T04:03:24;99257.41;;;12.68;76.72
28630;BME280;15817;42.130;24.762;2023-04-15T04:05:51;99258.38;;;12.64;76.95
28630;BME280;15817;42.130;24.762;2023-04-15T04:08:16;99246.94;;;12.58;76.57
28630;BME280;15817;42.130;24.762;2023-04-15T04:10:44;99247.00;;;12.56;76.74
28630;BME280;15817;42.130;24.762;2023-04-15T04:13:09;99245.22;;;12.57;76.81
28630;BME280;15817;42.130;24.762;2023-04-15T04:15:35;99242.66;;;12.52;76.66
28630;BME280;15817;42.130;24.762;2023-04-15T04:18:01;99248.97;;;12.48;76.86
28630;BME280;15817;42.130;24.762;2023-04-15T04:20:26;99249.22;;;12.38;76.88
28630;BME280;15817;42.130;24.762;2023-04-15T04:22:52;99245.81;;;12.32;76.76
28630;BME280;15817;42.130;24.762;2023-04-15T04:25:18;99252.00;;;12.33;76.27
28630;BME280;15817;42.130;24.762;2023-04-15T04:27:43;99253.88;;;12.28;76.27
28630;BME280;15817;42.130;24.762;2023-04-15T04:30:10;99252.13;;;12.27;76.34
28630;BME280;15817;42.130;24.762;2023-04-15T04:32:36;99259.16;;;12.31;76.43
28630;BME280;15817;42.130;24.762;2023-04-15T04:35:03;99251.44;;;12.19;76.67
28630;BME280;15817;42.130;24.762;2023-04-15T04:37:29;99247.09;;;12.13;76.78
28630;BME280;15817;42.130;24.762;2023-04-15T04:39:55;99270.06;;;12.20;77.16
28630;BME280;15817;42.130;24.762;2023-04-15T04:42:21;99277.25;;;12.17;77.31
28630;BME280;15817;42.130;24.762;2023-04-15T04:44:47;99286.22;;;12.13;77.38
28630;BME280;15817;42.130;24.762;2023-04-15T04:47:13;99278.31;;;12.10;77.38
28630;BME280;15817;42.130;24.762;2023-04-15T04:49:38;99260.59;;;12.07;76.93
28630;BME280;15817;42.130;24.762;2023-04-15T04:52:05;99281.75;;;12.13;75.68
28630;BME280;15817;42.130;24.762;2023-04-15T04:54:31;99272.00;;;12.12;75.34
28630;BME280;15817;42.130;24.762;2023-04-15T04:56:57;99266.00;;;12.03;75.15
28630;BME280;15817;42.130;24.762;2023-04-15T04:59:26;99281.13;;;12.01;75.42
28630;BME280;15817;42.130;24.762;2023-04-15T05:01:58;99264.25;;;12.00;75.71
28630;BME280;15817;42.130;24.762;2023-04-15T05:04:23;99253.53;;;12.05;76.05
28630;BME280;15817;42.130;24.762;2023-04-15T05:06:50;99279.88;;;12.18;76.35
28630;BME280;15817;42.130;24.762;2023-04-15T05:09:16;99278.06;;;12.20;76.54
28630;BME280;15817;42.130;24.762;2023-04-15T05:11:42;99277.94;;;12.25;76.30
28630;BME280;15817;42.130;24.762;2023-04-15T05:14:08;99277.88;;;12.28;76.21
28630;BME280;15817;42.130;24.762;2023-04-15T05:16:39;99264.72;;;12.22;76.36
28630;BME280;15817;42.130;24.762;2023-04-15T05:19:07;99278.81;;;12.25;76.70
28630;BME280;15817;42.130;24.762;2023-04-15T05:21:33;99279.66;;;12.29;76.67
28630;BME280;15817;42.130;24.762;2023-04-15T05:23:59;99268.03;;;12.31;76.74
28630;BME280;15817;42.130;24.762;2023-04-15T05:26:25;99272.50;;;12.31;77.27
28630;BME280;15817;42.130;24.762;2023-04-15T05:28:51;99279.38;;;12.41;77.49
28630;BME280;15817;42.130;24.762;2023-04-15T05:31:18;99280.25;;;12.42;77.37
28630;BME280;15817;42.130;24.762;2023-04-15T05:33:44;99290.78;;;12.46;77.59
28630;BME280;15817;42.130;24.762;2023-04-15T05:36:09;99299.75;;;12.44;77.74
28630;BME280;15817;42.130;24.762;2023-04-15T05:38:36;99310.28;;;12.50;77.83
28630;BME280;15817;42.130;24.762;2023-04-15T05:41:02;99311.97;;;12.54;77.55
28630;BME280;15817;42.130;24.762;2023-04-15T05:43:28;99302.41;;;12.45;76.82
28630;BME280;15817;42.130;24.762;2023-04-15T05:45:55;99313.00;;;12.47;76.66
28630;BME280;15817;42.130;24.762;2023-04-15T05:48:21;99318.25;;;12.51;76.17
28630;BME280;15817;42.130;24.762;2023-04-15T05:50:49;99320.97;;;12.48;75.93
28630;BME280;15817;42.130;24.762;2023-04-15T05:53:15;99328.06;;;12.49;76.55
28630;BME280;15817;42.130;24.762;2023-04-15T05:55:40;99324.53;;;12.49;76.27
28630;BME280;15817;42.130;24.762;2023-04-15T05:58:06;99322.84;;;12.45;75.87
28630;BME280;15817;42.130;24.762;2023-04-15T06:00:33;99331.66;;;12.48;76.19
28630;BME280;15817;42.130;24.762;2023-04-15T06:02:59;99332.47;;;12.52;76.38
28630;BME280;15817;42.130;24.762;2023-04-15T06:05:28;99332.41;;;12.55;76.20
28630;BME280;15817;42.130;24.762;2023-04-15T06:07:54;99337.66;;;12.58;76.02
28630;BME280;15817;42.130;24.762;2023-04-15T06:10:19;99322.53;;;12.58;75.84
28630;BME280;15817;42.130;24.762;2023-04-15T06:12:45;99331.28;;;12.65;75.59
28630;BME280;15817;42.130;24.762;2023-04-15T06:15:11;99332.25;;;12.61;75.96
28630;BME280;15817;42.130;24.762;2023-04-15T06:17:37;99327.81;;;12.60;76.31
28630;BME280;15817;42.130;24.762;2023-04-15T06:20:03;99346.25;;;12.70;76.14
28630;BME280;15817;42.130;24.762;2023-04-15T06:22:29;99343.59;;;12.70;76.14
28630;BME280;15817;42.130;24.762;2023-04-15T06:24:54;99347.00;;;12.77;76.39
28630;BME280;15817;42.130;24.762;2023-04-15T06:27:20;99347.88;;;12.78;76.70
28630;BME280;15817;42.130;24.762;2023-04-15T06:29:50;99350.41;;;12.84;76.38
28630;BME280;15817;42.130;24.762;2023-04-15T06:32:16;99344.16;;;12.85;76.25
28630;BME280;15817;42.130;24.762;2023-04-15T06:34:42;99352.84;;;12.93;76.60
28630;BME280;15817;42.130;24.762;2023-04-15T06:37:07;99358.03;;;13.00;77.02
28630;BME280;15817;42.130;24.762;2023-04-15T06:39:35;99361.41;;;13.07;77.50
28630;BME280;15817;42.130;24.762;2023-04-15T06:42:02;99352.53;;;13.06;77.68
28630;BME280;15817;42.130;24.762;2023-04-15T06:44:30;99346.22;;;13.09;77.61
28630;BME280;15817;42.130;24.762;2023-04-15T06:46:56;99349.66;;;13.16;77.65
28630;BME280;15817;42.130;24.762;2023-04-15T06:49:25;99349.63;;;13.17;78.33
28630;BME280;15817;42.130;24.762;2023-04-15T06:51:51;99344.19;;;13.22;78.76
28630;BME280;15817;42.130;24.762;2023-04-15T06:54:17;99358.16;;;13.31;79.37
28630;BME280;15817;42.130;24.762;2023-04-15T06:56:43;99344.78;;;13.33;79.63
28630;BME280;15817;42.130;24.762;2023-04-15T06:59:09;99353.50;;;13.39;80.08
28630;BME280;15817;42.130;24.762;2023-04-15T07:01:37;99351.59;;;13.45;81.37
28630;BME280;15817;42.130;24.762;2023-04-15T07:04:05;99355.84;;;13.52;81.06
28630;BME280;15817;42.130;24.762;2023-04-15T07:06:32;99361.03;;;13.59;81.39
28630;BME280;15817;42.130;24.762;2023-04-15T07:08:58;99358.38;;;13.58;81.65
28630;BME280;15817;42.130;24.762;2023-04-15T07:11:27;99369.53;;;13.73;82.16
28630;BME280;15817;42.130;24.762;2023-04-15T07:13:57;99373.75;;;13.84;81.81
28630;BME280;15817;42.130;24.762;2023-04-15T07:16:23;99364.84;;;13.83;80.87
28630;BME280;15817;42.130;24.762;2023-04-15T07:18:48;99366.44;;;13.89;80.27
28630;BME280;15817;42.130;24.762;2023-04-15T07:21:14;99370.53;;;14.02;80.01
28630;BME280;15817;42.130;24.762;2023-04-15T07:23:41;99368.47;;;14.11;79.72
28630;BME280;15817;42.130;24.762;2023-04-15T07:26:07;99376.13;;;14.25;79.53
28630;BME280;15817;42.130;24.762;2023-04-15T07:28:33;99374.06;;;14.35;79.91
28630;BME280;15817;42.130;24.762;2023-04-15T07:31:01;99384.28;;;14.53;80.04
28630;BME280;15817;42.130;24.762;2023-04-15T07:33:27;99382.19;;;14.63;79.88
28630;BME280;15817;42.130;24.762;2023-04-15T07:35:53;99384.19;;;14.84;79.40
28630;BME280;15817;42.130;24.762;2023-04-15T07:38:18;99378.25;;;15.02;78.47
28630;BME280;15817;42.130;24.762;2023-04-15T07:40:46;99371.28;;;15.25;78.50
28630;BME280;15817;42.130;24.762;2023-04-15T07:43:12;99361.69;;;15.45;75.94
28630;BME280;15817;42.130;24.762;2023-04-15T07:45:38;99363.66;;;15.67;73.45
28630;BME280;15817;42.130;24.762;2023-04-15T07:48:28;99361.03;;;15.90;69.66
28630;BME280;15817;42.130;24.762;2023-04-15T07:50:57;99361.56;;;16.24;67.44
28630;BME280;15817;42.130;24.762;2023-04-15T07:53:26;99368.41;;;16.56;68.00
28630;BME280;15817;42.130;24.762;2023-04-15T07:55:52;99361.53;;;16.73;67.08
28630;BME280;15817;42.130;24.762;2023-04-15T07:58:18;99362.56;;;16.92;66.13
28630;BME280;15817;42.130;24.762;2023-04-15T08:00:47;99366.06;;;17.16;63.76
28630;BME280;15817;42.130;24.762;2023-04-15T08:03:18;99375.94;;;17.37;63.91
28630;BME280;15817;42.130;24.762;2023-04-15T08:05:44;99376.66;;;17.62;63.81
28630;BME280;15817;42.130;24.762;2023-04-15T08:08:09;99372.81;;;17.90;63.47
28630;BME280;15817;42.130;24.762;2023-04-15T08:10:36;99374.34;;;18.16;61.85
28630;BME280;15817;42.130;24.762;2023-04-15T08:13:02;99366.25;;;18.36;61.25
28630;BME280;15817;42.130;24.762;2023-04-15T08:15:30;99363.72;;;18.52;60.09
28630;BME280;15817;42.130;24.762;2023-04-15T08:30:24;99374.44;;;19.28;56.27
28630;BME280;15817;42.130;24.762;2023-04-15T08:32:50;99369.88;;;19.49;56.61
28630;BME280;15817;42.130;24.762;2023-04-15T08:35:16;99373.38;;;19.68;55.62
28630;BME280;15817;42.130;24.762;2023-04-15T08:37:42;99359.88;;;19.85;55.51
28630;BME280;15817;42.130;24.762;2023-04-15T08:40:09;99348.03;;;19.88;55.08
28630;BME280;15817;42.130;24.762;2023-04-15T08:42:47;99347.69;;;20.11;54.77
28630;BME280;15817;42.130;24.762;2023-04-15T08:45:16;99359.09;;;20.34;53.36
28630;BME280;15817;42.130;24.762;2023-04-15T08:47:44;99358.41;;;20.47;52.91
28630;BME280;15817;42.130;24.762;2023-04-15T08:50:11;99361.59;;;20.38;52.60
28630;BME280;15817;42.130;24.762;2023-04-15T08:52:37;99363.63;;;20.50;52.58
28630;BME280;15817;42.130;24.762;2023-04-15T08:55:04;99362.28;;;20.75;52.08
28630;BME280;15817;42.130;24.762;2023-04-15T08:57:30;99365.94;;;20.89;50.47
28630;BME280;15817;42.130;24.762;2023-04-15T08:59:57;99364.91;;;20.92;50.34
28630;BME280;15817;42.130;24.762;2023-04-15T09:02:24;99366.22;;;21.16;50.08
28630;BME280;15817;42.130;24.762;2023-04-15T09:04:52;99367.81;;;21.36;49.33
28630;BME280;15817;42.130;24.762;2023-04-15T09:07:17;99356.66;;;21.42;48.50
28630;BME280;15817;42.130;24.762;2023-04-15T09:09:48;99360.78;;;21.34;48.00
28630;BME280;15817;42.130;24.762;2023-04-15T09:12:14;99356.13;;;21.36;48.11
28630;BME280;15817;42.130;24.762;2023-04-15T09:14:44;99360.22;;;21.43;47.99
28630;BME280;15817;42.130;24.762;2023-04-15T09:17:10;99357.94;;;21.51;47.03
28630;BME280;15817;42.130;24.762;2023-04-15T09:19:36;99364.34;;;21.18;47.95
28630;BME280;15817;42.130;24.762;2023-04-15T09:22:02;99354.53;;;21.00;49.41
28630;BME280;15817;42.130;24.762;2023-04-15T09:24:38;99356.44;;;20.82;51.02
28630;BME280;15817;42.130;24.762;2023-04-15T09:27:05;99344.25;;;20.75;50.90
28630;BME280;15817;42.130;24.762;2023-04-15T09:29:31;99333.59;;;21.04;50.02
28630;BME280;15817;42.130;24.762;2023-04-15T09:32:13;99337.72;;;21.26;49.43
28630;BME280;15817;42.130;24.762;2023-04-15T09:34:42;99331.09;;;21.32;48.36
28630;BME280;15817;42.130;24.762;2023-04-15T09:37:08;99331.63;;;21.68;47.42
28630;BME280;15817;42.130;24.762;2023-04-15T09:39:49;99334.97;;;21.88;46.25
28630;BME280;15817;42.130;24.762;2023-04-15T09:42:15;99325.84;;;21.45;46.46
28630;BME280;15817;42.130;24.762;2023-04-15T09:44:48;99327.75;;;21.43;46.83
28630;BME280;15817;42.130;24.762;2023-04-15T09:47:30;99330.63;;;21.69;45.63
28630;BME280;15817;42.130;24.762;2023-04-15T09:49:57;99328.41;;;21.92;46.12
28630;BME280;15817;42.130;24.762;2023-04-15T09:52:24;99326.69;;;22.05;44.98
28630;BME280;15817;42.130;24.762;2023-04-15T09:54:52;99334.28;;;22.14;44.12
28630;BME280;15817;42.130;24.762;2023-04-15T09:57:20;99324.59;;;22.38;43.79
28630;BME280;15817;42.130;24.762;2023-04-15T09:59:46;99329.91;;;22.12;43.63
28630;BME280;15817;42.130;24.762;2023-04-15T10:02:13;99326.53;;;22.22;43.46
28630;BME280;15817;42.130;24.762;2023-04-15T10:04:40;99341.72;;;22.11;42.92
28630;BME280;15817;42.130;24.762;2023-04-15T10:07:07;99326.91;;;22.16;42.16
28630;BME280;15817;42.130;24.762;2023-04-15T10:09:37;99320.72;;;22.14;42.16
28630;BME280;15817;42.130;24.762;2023-04-15T10:12:04;99318.34;;;22.38;42.25
28630;BME280;15817;42.130;24.762;2023-04-15T10:14:33;99316.28;;;22.56;40.73
28630;BME280;15817;42.130;24.762;2023-04-15T10:17:04;99309.28;;;22.66;41.13
28630;BME280;15817;42.130;24.762;2023-04-15T10:19:32;99296.66;;;22.38;42.38
28630;BME280;15817;42.130;24.762;2023-04-15T10:21:58;99308.13;;;22.70;41.71
28630;BME280;15817;42.130;24.762;2023-04-15T10:24:24;99292.84;;;22.83;40.58
28630;BME280;15817;42.130;24.762;2023-04-15T10:26:53;99293.13;;;22.64;41.17
28630;BME280;15817;42.130;24.762;2023-04-15T10:29:19;99288.59;;;22.51;41.75
28630;BME280;15817;42.130;24.762;2023-04-15T10:31:45;99290.13;;;22.69;41.02
28630;BME280;15817;42.130;24.762;2023-04-15T10:34:12;99290.66;;;23.02;40.29
28630;BME280;15817;42.130;24.762;2023-04-15T10:36:40;99283.84;;;23.09;39.49
28630;BME280;15817;42.130;24.762;2023-04-15T10:44:35;99277.84;;;23.19;40.72
28630;BME280;15817;42.130;24.762;2023-04-15T10:47:09;99276.06;;;22.91;42.60
28630;BME280;15817;42.130;24.762;2023-04-15T10:49:42;99276.25;;;22.88;42.54
28630;BME280;15817;42.130;24.762;2023-04-15T10:52:09;99264.88;;;22.83;43.10
28630;BME280;15817;42.130;24.762;2023-04-15T10:54:36;99272.50;;;22.90;43.24
28630;BME280;15817;42.130;24.762;2023-04-15T10:57:12;99256.72;;;23.09;42.43
28630;BME280;15817;42.130;24.762;2023-04-15T11:02:44;99266.53;;;22.57;41.02
28630;BME280;15817;42.130;24.762;2023-04-15T11:05:11;99268.47;;;22.40;43.09
28630;BME280;15817;42.130;24.762;2023-04-15T11:07:38;99260.50;;;22.52;43.52
28630;BME280;15817;42.130;24.762;2023-04-15T11:12:43;99250.63;;;22.51;42.47
28630;BME280;15817;42.130;24.762;2023-04-15T11:17:50;99258.34;;;22.85;41.41
28630;BME280;15817;42.130;24.762;2023-04-15T11:20:17;99239.31;;;22.99;41.58
28630;BME280;15817;42.130;24.762;2023-04-15T11:22:50;99240.44;;;23.09;41.88
28630;BME280;15817;42.130;24.762;2023-04-15T11:25:36;99244.69;;;23.14;42.05
28630;BME280;15817;42.130;24.762;2023-04-15T11:28:02;99237.47;;;23.27;42.10
28630;BME280;15817;42.130;24.762;2023-04-15T11:30:33;99248.72;;;23.21;41.58
28630;BME280;15817;42.130;24.762;2023-04-15T11:33:04;99243.81;;;23.13;41.68
28630;BME280;15817;42.130;24.762;2023-04-15T11:35:30;99246.41;;;22.47;42.25
28630;BME280;15817;42.130;24.762;2023-04-15T11:37:56;99236.63;;;22.16;43.00
28630;BME280;15817;42.130;24.762;2023-04-15T11:40:28;99235.38;;;22.50;43.04
28630;BME280;15817;42.130;24.762;2023-04-15T11:43:23;99231.75;;;22.78;42.64
28630;BME280;15817;42.130;24.762;2023-04-15T11:45:57;99217.47;;;22.74;42.92
28630;BME280;15817;42.130;24.762;2023-04-15T11:48:25;99208.66;;;22.85;43.26
28630;BME280;15817;42.130;24.762;2023-04-15T11:50:56;99220.66;;;22.95;43.66
28630;BME280;15817;42.130;24.762;2023-04-15T11:53:22;99213.25;;;22.97;43.58
28630;BME280;15817;42.130;24.762;2023-04-15T11:55:52;99220.28;;;22.87;43.75
28630;BME280;15817;42.130;24.762;2023-04-15T11:58:23;99204.63;;;22.78;43.51
28630;BME280;15817;42.130;24.762;2023-04-15T12:00:58;99212.41;;;22.96;43.54
28630;BME280;15817;42.130;24.762;2023-04-15T12:03:36;99215.63;;;22.89;42.01
28630;BME280;15817;42.130;24.762;2023-04-15T12:09:11;99207.34;;;22.22;44.07
28630;BME280;15817;42.130;24.762;2023-04-15T12:14:09;99200.81;;;22.39;42.77
28630;BME280;15817;42.130;24.762;2023-04-15T12:16:40;99202.38;;;22.43;42.84
28630;BME280;15817;42.130;24.762;2023-04-15T12:19:09;99178.97;;;22.69;42.92
28630;BME280;15817;42.130;24.762;2023-04-15T12:21:38;99185.91;;;22.87;42.09
28630;BME280;15817;42.130;24.762;2023-04-15T12:24:09;99188.22;;;22.93;42.54
28630;BME280;15817;42.130;24.762;2023-04-15T12:29:07;99178.88;;;22.97;43.40
28630;BME280;15817;42.130;24.762;2023-04-15T12:31:34;99192.72;;;22.80;44.29
28630;BME280;15817;42.130;24.762;2023-04-15T12:34:08;99191.44;;;22.45;44.57
28630;BME280;15817;42.130;24.762;2023-04-15T12:36:36;99194.22;;;22.43;45.11
28630;BME280;15817;42.130;24.762;2023-04-15T12:39:03;99204.81;;;22.33;45.10
28630;BME280;15817;42.130;24.762;2023-04-15T12:41:30;99185.66;;;22.36;45.79
28630;BME280;15817;42.130;24.762;2023-04-15T12:43:57;99180.81;;;22.27;46.13
28630;BME280;15817;42.130;24.762;2023-04-15T12:46:22;99179.88;;;22.00;46.47
28630;BME280;15817;42.130;24.762;2023-04-15T12:48:49;99189.41;;;21.77;47.78
28630;BME280;15817;42.130;24.762;2023-04-15T12:51:16;99186.31;;;21.55;48.26
28630;BME280;15817;42.130;24.762;2023-04-15T12:53:42;99187.66;;;21.62;48.69
28630;BME280;15817;42.130;24.762;2023-04-15T12:56:12;99200.03;;;21.66;49.13
28630;BME280;15817;42.130;24.762;2023-04-15T12:58:41;99194.00;;;21.47;48.98
28630;BME280;15817;42.130;24.762;2023-04-15T13:01:07;99188.50;;;21.34;50.00
28630;BME280;15817;42.130;24.762;2023-04-15T13:03:34;99194.56;;;21.38;50.45
28630;BME280;15817;42.130;24.762;2023-04-15T13:06:00;99200.69;;;21.41;50.71
28630;BME280;15817;42.130;24.762;2023-04-15T13:08:29;99199.41;;;21.33;50.74
28630;BME280;15817;42.130;24.762;2023-04-15T13:10:55;99193.22;;;21.30;51.24
28630;BME280;15817;42.130;24.762;2023-04-15T13:13:24;99198.31;;;21.35;51.38
28630;BME280;15817;42.130;24.762;2023-04-15T13:15:50;99187.75;;;21.60;50.98
28630;BME280;15817;42.130;24.762;2023-04-15T13:18:15;99170.94;;;21.55;51.04
28630;BME280;15817;42.130;24.762;2023-04-15T13:20:41;99183.59;;;21.55;51.53
28630;BME280;15817;42.130;24.762;2023-04-15T13:23:08;99172.56;;;21.44;52.69
28630;BME280;15817;42.130;24.762;2023-04-15T13:25:36;99177.09;;;21.43;52.36